Terminal Aerodrome Forecast
Issued by NWS

Current Version | Previous Version | Graphics & Text | Print | Product List | Glossary On
Versions: 1 2 3 4 5 6 7 8 9 10 11 12 13 14 15 16 17 18 19 20
822
FTUS41 KILN 191138
TAFLUK
TAF
KLUK 191138Z 1912/2012 14005KT P6SM VCTS OVC090CB
      TEMPO 1913/1916 5SM -TSRA BR OVC050CB
     FM191600 17005KT P6SM VCTS OVC050CB
     FM191800 20005KT P6SM VCSH OVC050
     FM200200 17004KT P6SM BKN110
     FM200400 VRB03KT 5SM BR BKN090
     FM200800 00000KT 1SM BR BKN003=

USA.gov is the U.S. government's official web portal to all federal, state and local government web resources and services.